createdAt,value
2023-04-18T00:02:29.479Z,13.05
2023-04-18T00:05:26.929Z,13.13
2023-04-18T00:08:23.492Z,12.9
2023-04-18T00:11:19.024Z,12.92
2023-04-18T00:14:14.808Z,13.07
2023-04-18T00:17:13.127Z,13.06
2023-04-18T00:20:10.726Z,13.34
2023-04-18T00:23:07.220Z,13.38
2023-04-18T00:26:02.803Z,13.42
2023-04-18T00:28:59.370Z,13.46
2023-04-18T00:31:54.944Z,13.54
2023-04-18T00:34:50.462Z,13.63
2023-04-18T00:37:46.028Z,13.74
2023-04-18T00:40:42.567Z,13.63
2023-04-18T00:43:39.196Z,13.65
2023-04-18T00:46:34.836Z,13.65
2023-04-18T00:49:31.278Z,13.59
2023-04-18T00:52:27.813Z,13.4
2023-04-18T00:55:24.449Z,13.53
2023-04-18T00:58:19.970Z,13.56
2023-04-18T01:01:17.529Z,13.8
2023-04-18T01:04:14.576Z,13.66
2023-04-18T01:07:11.663Z,13.55
2023-04-18T01:10:09.191Z,13.37
2023-04-18T01:13:09.760Z,13.52
2023-04-18T01:16:05.396Z,13.37
2023-04-18T01:19:03.834Z,13.07
2023-04-18T01:22:02.395Z,13.16
2023-04-18T01:25:05.916Z,13.2
2023-04-18T01:28:02.513Z,13.26
2023-04-18T01:30:58.105Z,13.13
2023-04-18T01:33:53.602Z,13.37
2023-04-18T01:36:49.187Z,13.27
2023-04-18T01:39:44.750Z,13.76
2023-04-18T01:42:40.247Z,13.88
2023-04-18T01:45:37.870Z,13.57
2023-04-18T01:48:33.402Z,13.22
2023-04-18T01:51:28.972Z,13.21
2023-04-18T01:54:25.514Z,13.25
2023-04-18T01:57:21.088Z,13.34
2023-04-18T02:00:17.669Z,13.23
2023-04-18T02:03:19.326Z,13.08
2023-04-18T02:06:19.754Z,12.96
2023-04-18T02:09:20.290Z,12.95
2023-04-18T02:12:21.142Z,12.95
2023-04-18T02:15:23.408Z,12.92
2023-04-18T02:21:30.501Z,12.9
2023-04-18T02:24:31.077Z,12.88
2023-04-18T02:27:26.605Z,12.92
2023-04-18T02:30:23.195Z,13.14
2023-04-18T02:33:19.704Z,13.05
2023-04-18T02:36:16.285Z,13.01
2023-04-18T02:39:11.826Z,12.96
2023-04-18T02:42:09.397Z,13.12
2023-04-18T02:45:05.939Z,12.88
2023-04-18T02:48:01.482Z,12.9
2023-04-18T02:51:03.048Z,12.73
2023-04-18T02:53:58.647Z,12.65
2023-04-18T02:56:54.197Z,12.65
2023-04-18T02:59:50.727Z,12.8
2023-04-18T03:02:47.476Z,12.91
2023-04-18T03:05:42.884Z,13.04
2023-04-18T03:08:38.438Z,13.12
2023-04-18T03:11:34.957Z,13.34
2023-04-18T03:14:30.539Z,13.64
2023-04-18T03:17:26.125Z,13.46
2023-04-18T03:20:21.662Z,13.16
2023-04-18T03:23:19.205Z,13.28
2023-04-18T03:26:15.805Z,13.17
2023-04-18T03:29:11.334Z,13.32
2023-04-18T03:32:06.869Z,12.91
2023-04-18T03:35:03.484Z,12.86
2023-04-18T03:37:58.971Z,12.8
2023-04-18T03:40:54.592Z,12.94
2023-04-18T03:43:51.097Z,12.77
2023-04-18T03:46:46.678Z,12.56
2023-04-18T03:49:43.283Z,12.48
2023-04-18T03:52:38.787Z,12.36
2023-04-18T03:55:34.354Z,12.37
2023-04-18T03:58:30.954Z,12.22
2023-04-18T04:01:26.480Z,12.32
2023-04-18T04:04:22.140Z,12.28
2023-04-18T04:07:17.663Z,12.26
2023-04-18T04:10:13.191Z,12.25
2023-04-18T04:13:08.753Z,12.27
2023-04-18T04:16:05.365Z,12.26
2023-04-18T04:19:03.876Z,12.43
2023-04-18T04:21:59.409Z,12.3
2023-04-18T04:24:57.995Z,12.18
2023-04-18T04:27:54.531Z,12.17
2023-04-18T04:30:50.138Z,12.12
2023-04-18T04:33:46.658Z,12.25
2023-04-18T04:36:48.231Z,12.48
2023-04-18T04:39:45.748Z,12.39
2023-04-18T04:42:43.337Z,12.43
2023-04-18T04:45:41.968Z,12.33
2023-04-18T04:48:37.397Z,12.38
2023-04-18T04:51:32.982Z,12.41
2023-04-18T04:54:28.525Z,12.75
2023-04-18T04:57:24.142Z,12.85
2023-04-18T05:00:21.654Z,12.88
2023-04-18T05:03:17.429Z,12.86
2023-04-18T05:06:13.791Z,12.66
2023-04-18T05:09:09.328Z,12.66
2023-04-18T05:12:05.877Z,12.58
2023-04-18T05:15:03.447Z,12.62
2023-04-18T05:17:59.040Z,12.58
2023-04-18T05:20:55.563Z,12.43
2023-04-18T05:23:51.148Z,12.57
2023-04-18T05:26:46.673Z,12.81
2023-04-18T05:29:42.272Z,12.89
2023-04-18T05:32:38.851Z,12.84
2023-04-18T05:35:34.355Z,12.8
2023-04-18T05:38:30.972Z,13.16
2023-04-18T05:41:27.490Z,13.07
2023-04-18T05:44:24.082Z,13.07
2023-04-18T05:47:23.698Z,13.29
2023-04-18T05:50:19.168Z,13.58
2023-04-18T05:53:14.753Z,13.44
2023-04-18T05:56:12.299Z,13.36
2023-04-18T05:59:07.829Z,13.23
2023-04-18T06:02:04.447Z,13.03
2023-04-18T06:05:01.303Z,12.96
2023-04-18T06:07:57.531Z,13.03
2023-04-18T06:10:53.087Z,13.13
2023-04-18T06:13:48.637Z,13.14
2023-04-18T06:16:44.273Z,13.08
2023-04-18T06:19:39.792Z,13.09
2023-04-18T06:22:36.361Z,13
2023-04-18T06:25:31.884Z,13.03
2023-04-18T06:28:27.482Z,13.2
2023-04-18T06:31:23.033Z,13.13
2023-04-18T06:34:18.600Z,13.19
2023-04-18T06:37:14.175Z,13.19
2023-04-18T06:43:16.280Z,12.99
2023-04-18T06:46:12.867Z,13.16
2023-04-18T06:49:08.392Z,13.29
2023-04-18T06:52:06.944Z,13.78
2023-04-18T06:55:02.490Z,13.84
2023-04-18T06:58:00.035Z,13.96
2023-04-18T07:00:55.624Z,14.37
2023-04-18T07:03:51.273Z,14.51
2023-04-18T07:06:46.710Z,14.67
2023-04-18T07:09:45.232Z,14.56
2023-04-18T07:12:40.828Z,14.45
2023-04-18T07:15:36.374Z,14.22
2023-04-18T07:18:37.978Z,14.05
2023-04-18T07:21:34.505Z,14.18
2023-04-18T07:24:30.065Z,14.16
2023-04-18T07:27:26.626Z,14.3
2023-04-18T07:30:23.153Z,14.12
2023-04-18T07:33:20.744Z,14.24
2023-04-18T07:36:18.266Z,14.33
2023-04-18T07:39:13.855Z,14.47
2023-04-18T07:42:11.434Z,14.08
2023-04-18T07:45:07.969Z,14.29
2023-04-18T07:48:03.571Z,14.19
2023-04-18T07:51:00.121Z,14.01
2023-04-18T07:53:55.671Z,13.86
2023-04-18T07:56:51.188Z,14.01
2023-04-18T07:59:46.781Z,14.03
2023-04-18T08:02:42.430Z,13.8
2023-04-18T08:05:38.992Z,13.91
2023-04-18T08:08:34.459Z,13.89
2023-04-18T08:11:30.010Z,14.04
2023-04-18T08:14:25.580Z,14.38
2023-04-18T08:17:22.181Z,14.5
2023-04-18T08:20:17.697Z,14.33
2023-04-18T08:23:14.260Z,14.24
2023-04-18T08:26:09.794Z,14.43
2023-04-18T08:29:06.383Z,14.42
2023-04-18T08:32:06.982Z,14.26
2023-04-18T08:35:05.473Z,15.05
2023-04-18T08:38:02.153Z,14.9
2023-04-18T08:40:57.611Z,15.08
2023-04-18T08:43:55.914Z,14.96
2023-04-18T08:46:54.719Z,15.14
2023-04-18T08:49:55.248Z,15.5
2023-04-18T08:52:54.801Z,15.62
2023-04-18T08:55:56.391Z,15.45
2023-04-18T08:58:55.936Z,15.38
2023-04-18T09:01:56.601Z,15.73
2023-04-18T09:04:58.980Z,15.68
2023-04-18T09:08:04.533Z,15.48
2023-04-18T09:11:06.086Z,15.75
2023-04-18T09:14:16.605Z,15.77
2023-04-18T09:17:24.124Z,15.83
2023-04-18T09:20:30.708Z,15.97
2023-04-18T09:23:30.216Z,16.07
2023-04-18T09:26:31.775Z,16.18
2023-04-18T09:29:34.310Z,16.16
2023-04-18T09:32:32.898Z,16.1
2023-04-18T09:35:31.417Z,15.58
2023-04-18T09:38:37.931Z,15.51
2023-04-18T09:41:38.514Z,15.49
2023-04-18T09:44:55.750Z,15.43
2023-04-18T09:47:53.600Z,15.18
2023-04-18T09:50:53.080Z,15.38
2023-04-18T09:53:51.668Z,15.61
2023-04-18T09:56:54.197Z,15.57
2023-04-18T09:59:59.754Z,15.51
2023-04-18T10:02:57.401Z,15.69
2023-04-18T10:05:57.905Z,16.01
2023-04-18T10:08:55.427Z,16.16
2023-04-18T10:11:51.963Z,16.1
2023-04-18T10:14:48.530Z,16.1
2023-04-18T10:18:03.588Z,16.08
2023-04-18T10:21:01.582Z,16.23
2023-04-18T10:24:08.136Z,15.94
2023-04-18T10:27:08.692Z,16.14
2023-04-18T10:30:10.225Z,16.49
2023-04-18T10:33:18.395Z,16.26
2023-04-18T10:36:21.324Z,16.37
2023-04-18T10:39:20.880Z,16.22
2023-04-18T10:42:27.391Z,16.52
2023-04-18T10:45:35.894Z,16
2023-04-18T10:51:48.976Z,16.33
2023-04-18T10:54:52.527Z,16.13
2023-04-18T10:57:50.101Z,16.16
2023-04-18T11:00:48.670Z,15.6
2023-04-18T11:03:46.278Z,15.65
2023-04-18T11:06:48.826Z,15.67
2023-04-18T11:09:50.270Z,15.8
2023-04-18T11:12:46.835Z,15.49
2023-04-18T11:15:44.410Z,15.33
2023-04-18T11:18:40.959Z,15.28
2023-04-18T11:21:37.545Z,15.05
2023-04-18T11:24:34.082Z,15.01
2023-04-18T11:27:29.672Z,15.35
2023-04-18T11:30:27.244Z,15.46
2023-04-18T11:33:27.784Z,15.6
2023-04-18T11:36:28.312Z,15.81
2023-04-18T11:39:24.858Z,15.69
2023-04-18T11:42:26.433Z,15.6
2023-04-18T11:45:21.937Z,15.41
2023-04-18T11:48:18.515Z,15.47
2023-04-18T11:51:19.086Z,15.52
2023-04-18T11:54:20.595Z,15.29
2023-04-18T11:57:21.150Z,15.29
2023-04-18T12:00:25.688Z,15.47
2023-04-18T12:03:22.418Z,15.57
2023-04-18T12:06:17.881Z,15.49
2023-04-18T12:09:16.375Z,15.65
2023-04-18T12:12:17.905Z,15.43
2023-04-18T12:15:14.475Z,15.21
2023-04-18T12:18:12.022Z,15.52
2023-04-18T12:21:10.597Z,15.11
2023-04-18T12:24:13.429Z,15.32
2023-04-18T12:27:13.681Z,15.57
2023-04-18T12:30:10.225Z,15.6
2023-04-18T12:33:06.897Z,15.69
2023-04-18T12:36:05.427Z,15.55
2023-04-18T12:39:01.920Z,15.77
2023-04-18T12:41:58.460Z,15.83
2023-04-18T12:44:56.066Z,15.98
2023-04-18T12:47:52.773Z,15.87
2023-04-18T12:50:50.173Z,15.7
2023-04-18T12:53:45.703Z,15.56
2023-04-18T12:56:42.275Z,15.5
2023-04-18T12:59:37.822Z,15.64
2023-04-18T13:02:37.602Z,15.85
2023-04-18T13:05:34.322Z,15.23
2023-04-18T13:08:30.497Z,15.39
2023-04-18T13:11:28.070Z,14.99
2023-04-18T13:14:23.618Z,14.89
2023-04-18T13:17:21.234Z,15.17
2023-04-18T13:20:16.716Z,15.23
2023-04-18T13:23:13.298Z,15.3
2023-04-18T13:26:08.872Z,15.16
2023-04-18T13:29:05.413Z,14.97
2023-04-18T13:32:01.009Z,15.29
2023-04-18T13:34:56.513Z,14.85
2023-04-18T13:37:52.047Z,15.24
2023-04-18T13:40:47.619Z,15.3
2023-04-18T13:43:45.234Z,15.32
2023-04-18T13:46:41.817Z,15.33
2023-04-18T13:49:37.336Z,15.21
2023-04-18T13:52:32.902Z,15.01
2023-04-18T13:55:28.438Z,15.33
2023-04-18T13:58:24.035Z,15.18
2023-04-18T14:01:20.575Z,15.29
2023-04-18T14:04:16.317Z,15.4
2023-04-18T14:07:11.685Z,15.22
2023-04-18T14:10:08.295Z,15.42
2023-04-18T14:13:03.801Z,15.23
2023-04-18T14:16:01.475Z,15.47
2023-04-18T14:18:57.942Z,15.52
2023-04-18T14:21:54.520Z,15.54
2023-04-18T14:24:52.076Z,15.55
2023-04-18T14:27:48.609Z,15.23
2023-04-18T14:30:45.213Z,15.54
2023-04-18T14:33:42.722Z,15.22
2023-04-18T14:36:40.274Z,16.13
2023-04-18T14:39:37.831Z,16.04
2023-04-18T14:42:33.376Z,15.64
2023-04-18T14:45:31.949Z,15.83
2023-04-18T14:48:27.585Z,16.94
2023-04-18T14:51:28.081Z,16.8
2023-04-18T14:54:23.657Z,16.09
2023-04-18T14:57:21.188Z,16.23
2023-04-18T15:00:17.757Z,16.57
2023-04-18T15:03:16.477Z,16.6
2023-04-18T15:06:14.861Z,16.36
2023-04-18T15:09:11.386Z,16.22
2023-04-18T15:12:06.967Z,15.91
2023-04-18T15:15:04.538Z,15.7
2023-04-18T15:18:00.245Z,16.03
2023-04-18T15:20:56.620Z,15.92
2023-04-18T15:23:53.219Z,16.22
2023-04-18T15:26:48.748Z,16.13
2023-04-18T15:29:44.305Z,16.11
2023-04-18T15:32:41.901Z,16.2
2023-04-18T15:35:38.408Z,16.07
2023-04-18T15:38:33.971Z,16.24
2023-04-18T15:41:29.537Z,16.3
2023-04-18T15:44:26.122Z,15.72
2023-04-18T15:47:22.708Z,15.64
2023-04-18T15:50:18.249Z,15.13
2023-04-18T15:53:14.852Z,15.07
2023-04-18T15:56:10.356Z,15.6
2023-04-18T15:59:06.951Z,15.7
2023-04-18T16:02:05.531Z,15.69
2023-04-18T16:05:00.993Z,15.69
2023-04-18T16:07:57.616Z,15.73
2023-04-18T16:10:54.179Z,15.49
2023-04-18T16:13:49.704Z,14.76
2023-04-18T16:16:45.275Z,15.21
2023-04-18T16:19:42.813Z,15.48
2023-04-18T16:22:38.413Z,15.79
2023-04-18T16:25:33.932Z,15.29
2023-04-18T16:28:30.482Z,15.47
2023-04-18T16:31:26.079Z,15.22
2023-04-18T16:34:23.647Z,15.07
2023-04-18T16:37:20.191Z,14.81
2023-04-18T16:40:16.791Z,14.95
2023-04-18T16:43:13.341Z,14.94
2023-04-18T16:46:08.892Z,14.49
2023-04-18T16:49:05.445Z,14.92
2023-04-18T16:52:01.972Z,15.25
2023-04-18T16:54:57.536Z,15.21
2023-04-18T16:57:53.107Z,14.64
2023-04-18T17:00:52.706Z,14.55
2023-04-18T17:03:48.248Z,14.65
2023-04-18T17:06:43.800Z,14.29
2023-04-18T17:09:41.362Z,14.02
2023-04-18T17:12:37.889Z,13.8
2023-04-18T17:15:33.467Z,14.13
2023-04-18T17:18:32.055Z,13.61
2023-04-18T17:21:28.596Z,13.73
2023-04-18T17:24:25.140Z,13.68
2023-04-18T17:27:20.678Z,13.75
2023-04-18T17:30:16.261Z,13.31
2023-04-18T17:33:16.829Z,13.05
2023-04-18T17:36:13.383Z,12.94
2023-04-18T17:39:09.907Z,13.39
2023-04-18T17:42:07.448Z,13.17
2023-04-18T17:45:05.028Z,12.91
2023-04-18T17:48:02.705Z,12.83
2023-04-18T17:50:59.191Z,12.79
2023-04-18T17:54:00.578Z,12.48
2023-04-18T17:56:57.272Z,12.59
2023-04-18T17:59:53.824Z,12.51
2023-04-18T18:02:49.494Z,12.31
2023-04-18T18:05:45.948Z,12.23
2023-04-18T18:08:43.539Z,12.1
2023-04-18T18:11:41.066Z,12.04
2023-04-18T18:14:41.487Z,12.03
2023-04-18T18:17:38.225Z,11.91
2023-04-18T18:20:41.686Z,11.92
2023-04-18T18:23:38.229Z,11.8
2023-04-18T18:26:34.802Z,11.78
2023-04-18T18:29:30.424Z,11.83
2023-04-18T18:32:26.981Z,12.12
2023-04-18T18:35:23.526Z,11.86
2023-04-18T18:38:24.074Z,11.91
2023-04-18T18:41:20.614Z,11.7
2023-04-18T18:44:16.178Z,11.71
2023-04-18T18:47:11.803Z,11.63
2023-04-18T18:50:12.405Z,11.45
2023-04-18T18:53:16.843Z,11.52
2023-04-18T18:56:18.406Z,11.52
2023-04-18T18:59:16.940Z,11.5
2023-04-18T19:02:13.525Z,11.43
2023-04-18T19:08:19.540Z,11.44
2023-04-18T19:11:26.913Z,11.44
2023-04-18T19:14:24.668Z,11.42
2023-04-18T19:17:28.201Z,11.63
2023-04-18T19:20:26.986Z,11.68
2023-04-18T19:23:27.369Z,11.55
2023-04-18T19:26:23.812Z,11.53
2023-04-18T19:29:22.506Z,11.47
2023-04-18T19:32:21.010Z,11.32
2023-04-18T19:35:18.904Z,11.16
2023-04-18T19:38:20.051Z,11.04
2023-04-18T19:41:16.645Z,10.97
2023-04-18T19:44:14.173Z,11.17
2023-04-18T19:47:10.737Z,11.18
2023-04-18T19:50:09.275Z,11.04
2023-04-18T19:53:07.868Z,11.09
2023-04-18T19:56:11.369Z,11.14
2023-04-18T19:59:08.916Z,11.11
2023-04-18T20:02:09.773Z,10.99
2023-04-18T20:05:07.237Z,11.27
2023-04-18T20:08:14.593Z,11.02
2023-04-18T20:11:11.156Z,11.18
2023-04-18T20:14:09.710Z,11.23
2023-04-18T20:17:07.239Z,11.27
2023-04-18T20:23:19.275Z,11.79
2023-04-18T20:26:19.882Z,11.62
2023-04-18T20:29:16.563Z,11.83
2023-04-18T20:32:15.008Z,11.86
2023-04-18T20:35:11.521Z,11.78
2023-04-18T20:38:15.102Z,11.82
2023-04-18T20:41:15.170Z,12.07
2023-04-18T20:44:11.440Z,12.65
2023-04-18T20:47:06.743Z,12.38
2023-04-18T20:53:21.066Z,11.72
2023-04-18T20:56:22.378Z,11.47
2023-04-18T20:59:18.921Z,11.9
2023-04-18T21:02:15.744Z,11.75
2023-04-18T21:05:11.025Z,11.73
2023-04-18T21:08:07.599Z,11.46
2023-04-18T21:11:08.153Z,11.66
2023-04-18T21:14:06.866Z,11.72
2023-04-18T21:17:03.284Z,11.76
2023-04-18T21:19:59.834Z,11.57
2023-04-18T21:22:55.374Z,11.47
2023-04-18T21:25:52.931Z,11.18
2023-04-18T21:28:53.501Z,11.34
2023-04-18T21:31:59.553Z,11.39
2023-04-18T21:34:58.603Z,11.43
2023-04-18T21:37:57.099Z,11.39
2023-04-18T21:40:53.669Z,11.55
2023-04-18T21:43:51.244Z,11.6
2023-04-18T21:46:48.869Z,11.28
2023-04-18T21:49:45.338Z,11.32
2023-04-18T21:52:42.913Z,11.12
2023-04-18T21:55:39.463Z,11.01
2023-04-18T21:58:42.017Z,11.18
2023-04-18T22:01:42.569Z,11.34
2023-04-18T22:04:49.110Z,11.51
2023-04-18T22:07:58.147Z,11.27
2023-04-18T22:10:54.198Z,11.82
2023-04-18T22:13:53.777Z,11.51
2023-04-18T22:16:49.331Z,11.25
2023-04-18T22:19:48.882Z,11.33
2023-04-18T22:22:45.444Z,11.51
2023-04-18T22:25:43.976Z,11.5
2023-04-18T22:28:39.523Z,11.45
2023-04-18T22:31:35.120Z,11.04
2023-04-18T22:34:31.652Z,11.22
2023-04-18T22:37:27.188Z,11.63
2023-04-18T22:40:22.767Z,12.45
2023-04-18T22:43:22.352Z,11.79
2023-04-18T22:46:17.919Z,11.73
2023-04-18T22:49:13.453Z,12.18
2023-04-18T22:52:09.987Z,11.66
2023-04-18T22:55:07.573Z,11.44
2023-04-18T22:58:03.154Z,11.11
2023-04-18T23:00:59.697Z,11.87
2023-04-18T23:03:55.450Z,11.78
2023-04-18T23:06:50.777Z,11.76
2023-04-18T23:09:47.336Z,11.76
2023-04-18T23:12:42.934Z,11.83
2023-04-18T23:15:39.514Z,12.08
2023-04-18T23:18:35.031Z,11.96
2023-04-18T23:21:31.600Z,11.7
2023-04-18T23:24:27.152Z,12.15
2023-04-18T23:27:22.728Z,11.74
2023-04-18T23:30:19.271Z,11.67
2023-04-18T23:33:14.827Z,11.89
2023-04-18T23:36:12.443Z,12.08
2023-04-18T23:39:09.912Z,11.67
2023-04-18T23:42:05.555Z,11.68
2023-04-18T23:45:01.094Z,11.79
2023-04-18T23:47:56.662Z,11.67
2023-04-18T23:50:52.220Z,11.23
2023-04-18T23:53:48.828Z,11.02
2023-04-18T23:56:44.309Z,11.08
2023-04-18T23:59:39.929Z,11.53
